sensor_id;sensor_type;location;lat;lon;timestamp;P1;durP1;ratioP1;P2;durP2;ratioP2
64595;SDS011;51003;51.628;6.670;2023-03-12T00:04:45;12.97;;;7.20;;
64595;SDS011;51003;51.628;6.670;2023-03-12T00:07:11;14.07;;;7.77;;
64595;SDS011;51003;51.628;6.670;2023-03-12T00:09:37;12.03;;;7.50;;
64595;SDS011;51003;51.628;6.670;2023-03-12T00:12:03;14.20;;;7.40;;
64595;SDS011;51003;51.628;6.670;2023-03-12T00:14:30;14.17;;;8.10;;
64595;SDS011;51003;51.628;6.670;2023-03-12T00:16:56;10.73;;;7.40;;
64595;SDS011;51003;51.628;6.670;2023-03-12T00:19:21;14.33;;;7.97;;
64595;SDS011;51003;51.628;6.670;2023-03-12T00:21:47;8.83;;;6.40;;
64595;SDS011;51003;51.628;6.670;2023-03-12T00:24:13;12.90;;;7.00;;
64595;SDS011;51003;51.628;6.670;2023-03-12T00:26:40;12.53;;;6.97;;
64595;SDS011;51003;51.628;6.670;2023-03-12T00:29:07;12.20;;;7.00;;
64595;SDS011;51003;51.628;6.670;2023-03-12T00:31:33;12.77;;;7.13;;
64595;SDS011;51003;51.628;6.670;2023-03-12T00:33:59;12.13;;;6.67;;
64595;SDS011;51003;51.628;6.670;2023-03-12T00:36:26;14.80;;;6.53;;
64595;SDS011;51003;51.628;6.670;2023-03-12T00:38:54;12.27;;;6.53;;
64595;SDS011;51003;51.628;6.670;2023-03-12T00:41:21;9.90;;;6.33;;
64595;SDS011;51003;51.628;6.670;2023-03-12T00:43:47;10.27;;;6.77;;
64595;SDS011;51003;51.628;6.670;2023-03-12T00:46:13;10.27;;;6.63;;
64595;SDS011;51003;51.628;6.670;2023-03-12T00:48:39;9.97;;;6.13;;
64595;SDS011;51003;51.628;6.670;2023-03-12T00:51:05;9.83;;;6.13;;
64595;SDS011;51003;51.628;6.670;2023-03-12T00:53:31;12.20;;;6.60;;
64595;SDS011;51003;51.628;6.670;2023-03-12T00:55:56;11.97;;;6.73;;
64595;SDS011;51003;51.628;6.670;2023-03-12T00:58:22;11.20;;;6.67;;
64595;SDS011;51003;51.628;6.670;2023-03-12T01:00:47;15.00;;;6.37;;
64595;SDS011;51003;51.628;6.670;2023-03-12T01:03:13;8.90;;;6.10;;
64595;SDS011;51003;51.628;6.670;2023-03-12T01:05:38;11.53;;;5.77;;
64595;SDS011;51003;51.628;6.670;2023-03-12T01:08:05;11.07;;;6.00;;
64595;SDS011;51003;51.628;6.670;2023-03-12T01:10:31;12.97;;;6.70;;
64595;SDS011;51003;51.628;6.670;2023-03-12T01:12:57;8.37;;;5.83;;
64595;SDS011;51003;51.628;6.670;2023-03-12T01:15:22;12.20;;;6.13;;
64595;SDS011;51003;51.628;6.670;2023-03-12T01:17:47;13.50;;;6.03;;
64595;SDS011;51003;51.628;6.670;2023-03-12T01:20:14;9.60;;;6.40;;
64595;SDS011;51003;51.628;6.670;2023-03-12T01:22:39;12.93;;;6.27;;
64595;SDS011;51003;51.628;6.670;2023-03-12T01:25:05;8.87;;;5.70;;
64595;SDS011;51003;51.628;6.670;2023-03-12T01:27:32;11.37;;;6.47;;
64595;SDS011;51003;51.628;6.670;2023-03-12T01:30:01;8.97;;;6.20;;
64595;SDS011;51003;51.628;6.670;2023-03-12T01:32:27;9.27;;;6.20;;
64595;SDS011;51003;51.628;6.670;2023-03-12T01:34:52;8.20;;;6.00;;
64595;SDS011;51003;51.628;6.670;2023-03-12T01:37:18;12.53;;;5.63;;
64595;SDS011;51003;51.628;6.670;2023-03-12T01:39:44;9.67;;;6.03;;
64595;SDS011;51003;51.628;6.670;2023-03-12T01:42:09;12.57;;;6.10;;
64595;SDS011;51003;51.628;6.670;2023-03-12T01:47:30;10.13;;;6.00;;
64595;SDS011;51003;51.628;6.670;2023-03-12T01:53:28;7.47;;;5.47;;
64595;SDS011;51003;51.628;6.670;2023-03-12T01:59:18;11.77;;;6.00;;
64595;SDS011;51003;51.628;6.670;2023-03-12T02:01:45;9.27;;;5.47;;
64595;SDS011;51003;51.628;6.670;2023-03-12T02:04:12;6.20;;;4.93;;
64595;SDS011;51003;51.628;6.670;2023-03-12T02:33:56;5.13;;;3.90;;
64595;SDS011;51003;51.628;6.670;2023-03-12T02:36:22;6.97;;;4.50;;
64595;SDS011;51003;51.628;6.670;2023-03-12T02:38:48;4.20;;;3.80;;
64595;SDS011;51003;51.628;6.670;2023-03-12T02:41:22;4.77;;;3.90;;
64595;SDS011;51003;51.628;6.670;2023-03-12T02:46:33;4.40;;;3.60;;
64595;SDS011;51003;51.628;6.670;2023-03-12T02:49:00;4.93;;;3.60;;
64595;SDS011;51003;51.628;6.670;2023-03-12T02:51:26;6.13;;;4.00;;
64595;SDS011;51003;51.628;6.670;2023-03-12T02:53:55;5.30;;;3.40;;
64595;SDS011;51003;51.628;6.670;2023-03-12T02:56:40;5.23;;;3.43;;
64595;SDS011;51003;51.628;6.670;2023-03-12T02:59:07;6.00;;;3.80;;
64595;SDS011;51003;51.628;6.670;2023-03-12T03:01:33;6.70;;;3.20;;
64595;SDS011;51003;51.628;6.670;2023-03-12T03:03:59;5.20;;;3.60;;
64595;SDS011;51003;51.628;6.670;2023-03-12T03:06:25;8.63;;;3.70;;
64595;SDS011;51003;51.628;6.670;2023-03-12T03:08:51;4.20;;;3.83;;
64595;SDS011;51003;51.628;6.670;2023-03-12T03:11:16;4.97;;;3.67;;
64595;SDS011;51003;51.628;6.670;2023-03-12T03:13:42;7.30;;;3.87;;
64595;SDS011;51003;51.628;6.670;2023-03-12T03:16:08;5.73;;;3.87;;
64595;SDS011;51003;51.628;6.670;2023-03-12T03:18:33;5.67;;;3.70;;
64595;SDS011;51003;51.628;6.670;2023-03-12T03:21:06;8.47;;;3.70;;
64595;SDS011;51003;51.628;6.670;2023-03-12T03:23:33;7.27;;;3.93;;
64595;SDS011;51003;51.628;6.670;2023-03-12T03:26:17;9.80;;;3.97;;
64595;SDS011;51003;51.628;6.670;2023-03-12T03:32:24;6.07;;;3.50;;
64595;SDS011;51003;51.628;6.670;2023-03-12T03:44:36;5.00;;;3.30;;
64595;SDS011;51003;51.628;6.670;2023-03-12T03:50:29;14.53;;;4.10;;
64595;SDS011;51003;51.628;6.670;2023-03-12T03:52:54;4.40;;;3.80;;
64595;SDS011;51003;51.628;6.670;2023-03-12T03:55:19;6.70;;;3.60;;
64595;SDS011;51003;51.628;6.670;2023-03-12T03:57:45;6.87;;;3.93;;
64595;SDS011;51003;51.628;6.670;2023-03-12T04:00:12;9.90;;;4.20;;
64595;SDS011;51003;51.628;6.670;2023-03-12T04:46:43;7.90;;;3.97;;
64595;SDS011;51003;51.628;6.670;2023-03-12T04:59:43;6.03;;;3.30;;
64595;SDS011;51003;51.628;6.670;2023-03-12T05:12:19;11.13;;;4.00;;
64595;SDS011;51003;51.628;6.670;2023-03-12T05:21:03;4.17;;;3.37;;
64595;SDS011;51003;51.628;6.670;2023-03-12T05:23:32;5.23;;;3.90;;
64595;SDS011;51003;51.628;6.670;2023-03-12T05:42:07;7.23;;;4.63;;
64595;SDS011;51003;51.628;6.670;2023-03-12T05:44:33;6.30;;;3.87;;
64595;SDS011;51003;51.628;6.670;2023-03-12T05:46:59;10.73;;;4.00;;
64595;SDS011;51003;51.628;6.670;2023-03-12T05:49:25;6.63;;;3.30;;
64595;SDS011;51003;51.628;6.670;2023-03-12T05:51:50;6.10;;;3.93;;
64595;SDS011;51003;51.628;6.670;2023-03-12T05:54:16;12.90;;;3.50;;
64595;SDS011;51003;51.628;6.670;2023-03-12T05:56:42;5.50;;;3.40;;
64595;SDS011;51003;51.628;6.670;2023-03-12T05:59:08;4.40;;;3.23;;
64595;SDS011;51003;51.628;6.670;2023-03-12T06:01:37;5.87;;;3.63;;
64595;SDS011;51003;51.628;6.670;2023-03-12T06:04:03;10.07;;;3.90;;
64595;SDS011;51003;51.628;6.670;2023-03-12T06:06:30;7.83;;;3.80;;
64595;SDS011;51003;51.628;6.670;2023-03-12T06:08:56;6.13;;;4.00;;
64595;SDS011;51003;51.628;6.670;2023-03-12T06:11:21;5.73;;;3.23;;
64595;SDS011;51003;51.628;6.670;2023-03-12T06:13:47;8.63;;;3.80;;
64595;SDS011;51003;51.628;6.670;2023-03-12T06:16:20;9.03;;;3.40;;
64595;SDS011;51003;51.628;6.670;2023-03-12T06:18:47;5.30;;;3.93;;
64595;SDS011;51003;51.628;6.670;2023-03-12T06:21:14;5.97;;;3.70;;
64595;SDS011;51003;51.628;6.670;2023-03-12T06:23:40;7.13;;;3.23;;
64595;SDS011;51003;51.628;6.670;2023-03-12T06:26:07;6.63;;;3.90;;
64595;SDS011;51003;51.628;6.670;2023-03-12T06:28:34;8.30;;;3.87;;
64595;SDS011;51003;51.628;6.670;2023-03-12T06:31:03;7.60;;;4.00;;
64595;SDS011;51003;51.628;6.670;2023-03-12T06:33:30;7.80;;;3.53;;
64595;SDS011;51003;51.628;6.670;2023-03-12T06:35:56;5.77;;;3.90;;
64595;SDS011;51003;51.628;6.670;2023-03-12T06:38:23;8.37;;;4.53;;
64595;SDS011;51003;51.628;6.670;2023-03-12T06:40:55;18.10;;;4.43;;
64595;SDS011;51003;51.628;6.670;2023-03-12T06:43:23;9.30;;;4.27;;
64595;SDS011;51003;51.628;6.670;2023-03-12T06:45:48;8.73;;;4.23;;
64595;SDS011;51003;51.628;6.670;2023-03-12T06:48:14;6.03;;;3.90;;
64595;SDS011;51003;51.628;6.670;2023-03-12T06:50:40;7.30;;;3.70;;
64595;SDS011;51003;51.628;6.670;2023-03-12T06:53:06;24.30;;;5.27;;
64595;SDS011;51003;51.628;6.670;2023-03-12T06:55:31;8.80;;;3.90;;
64595;SDS011;51003;51.628;6.670;2023-03-12T06:57:57;9.27;;;3.73;;
64595;SDS011;51003;51.628;6.670;2023-03-12T07:00:22;8.70;;;4.10;;
64595;SDS011;51003;51.628;6.670;2023-03-12T07:02:48;10.70;;;4.30;;
64595;SDS011;51003;51.628;6.670;2023-03-12T07:05:14;13.63;;;4.60;;
64595;SDS011;51003;51.628;6.670;2023-03-12T07:07:46;12.03;;;4.63;;
64595;SDS011;51003;51.628;6.670;2023-03-12T07:10:12;8.83;;;4.60;;
64595;SDS011;51003;51.628;6.670;2023-03-12T07:12:37;7.17;;;4.10;;
64595;SDS011;51003;51.628;6.670;2023-03-12T07:15:03;7.20;;;4.03;;
64595;SDS011;51003;51.628;6.670;2023-03-12T07:17:30;10.13;;;4.17;;
64595;SDS011;51003;51.628;6.670;2023-03-12T07:19:56;7.27;;;4.00;;
64595;SDS011;51003;51.628;6.670;2023-03-12T07:22:21;8.87;;;3.97;;
64595;SDS011;51003;51.628;6.670;2023-03-12T07:24:47;8.03;;;4.63;;
64595;SDS011;51003;51.628;6.670;2023-03-12T07:27:13;9.17;;;4.87;;
64595;SDS011;51003;51.628;6.670;2023-03-12T07:29:38;8.37;;;5.20;;
64595;SDS011;51003;51.628;6.670;2023-03-12T07:32:04;6.73;;;5.00;;
64595;SDS011;51003;51.628;6.670;2023-03-12T07:34:30;7.03;;;4.60;;
64595;SDS011;51003;51.628;6.670;2023-03-12T07:36:56;12.53;;;5.83;;
64595;SDS011;51003;51.628;6.670;2023-03-12T07:39:22;10.00;;;4.67;;
64595;SDS011;51003;51.628;6.670;2023-03-12T07:41:48;5.67;;;4.50;;
64595;SDS011;51003;51.628;6.670;2023-03-12T07:44:14;8.73;;;4.67;;
64595;SDS011;51003;51.628;6.670;2023-03-12T07:46:39;10.67;;;5.37;;
64595;SDS011;51003;51.628;6.670;2023-03-12T07:49:04;9.17;;;4.27;;
64595;SDS011;51003;51.628;6.670;2023-03-12T07:51:30;10.20;;;4.80;;
64595;SDS011;51003;51.628;6.670;2023-03-12T07:53:55;13.63;;;5.33;;
64595;SDS011;51003;51.628;6.670;2023-03-12T07:56:21;9.73;;;4.80;;
64595;SDS011;51003;51.628;6.670;2023-03-12T07:58:47;11.47;;;4.70;;
64595;SDS011;51003;51.628;6.670;2023-03-12T08:01:13;10.40;;;5.60;;
64595;SDS011;51003;51.628;6.670;2023-03-12T08:03:39;10.93;;;5.90;;
64595;SDS011;51003;51.628;6.670;2023-03-12T08:06:05;11.00;;;5.60;;
64595;SDS011;51003;51.628;6.670;2023-03-12T08:08:31;7.20;;;5.03;;
64595;SDS011;51003;51.628;6.670;2023-03-12T08:10:58;8.43;;;5.10;;
64595;SDS011;51003;51.628;6.670;2023-03-12T08:13:24;13.40;;;5.60;;
64595;SDS011;51003;51.628;6.670;2023-03-12T08:15:50;11.90;;;5.80;;
64595;SDS011;51003;51.628;6.670;2023-03-12T08:18:16;11.00;;;5.67;;
64595;SDS011;51003;51.628;6.670;2023-03-12T08:20:42;6.37;;;4.90;;
64595;SDS011;51003;51.628;6.670;2023-03-12T08:23:08;18.17;;;5.87;;
64595;SDS011;51003;51.628;6.670;2023-03-12T08:25:33;5.80;;;4.50;;
64595;SDS011;51003;51.628;6.670;2023-03-12T08:28:01;5.53;;;3.90;;
64595;SDS011;51003;51.628;6.670;2023-03-12T08:30:32;6.83;;;4.00;;
64595;SDS011;51003;51.628;6.670;2023-03-12T08:32:57;8.70;;;4.40;;
64595;SDS011;51003;51.628;6.670;2023-03-12T08:35:23;8.20;;;4.00;;
64595;SDS011;51003;51.628;6.670;2023-03-12T08:37:49;6.30;;;4.13;;
64595;SDS011;51003;51.628;6.670;2023-03-12T08:40:15;4.60;;;3.30;;
64595;SDS011;51003;51.628;6.670;2023-03-12T08:42:42;6.17;;;4.30;;
64595;SDS011;51003;51.628;6.670;2023-03-12T08:45:09;6.80;;;4.30;;
64595;SDS011;51003;51.628;6.670;2023-03-12T08:47:36;6.47;;;3.97;;
64595;SDS011;51003;51.628;6.670;2023-03-12T08:50:03;10.20;;;4.30;;
64595;SDS011;51003;51.628;6.670;2023-03-12T08:52:29;4.60;;;4.20;;
64595;SDS011;51003;51.628;6.670;2023-03-12T08:54:55;6.30;;;4.20;;
64595;SDS011;51003;51.628;6.670;2023-03-12T08:57:20;6.60;;;4.60;;
64595;SDS011;51003;51.628;6.670;2023-03-12T08:59:45;5.60;;;4.20;;
64595;SDS011;51003;51.628;6.670;2023-03-12T09:02:11;5.33;;;4.13;;
64595;SDS011;51003;51.628;6.670;2023-03-12T09:04:36;6.53;;;4.50;;
64595;SDS011;51003;51.628;6.670;2023-03-12T09:07:02;8.23;;;4.60;;
64595;SDS011;51003;51.628;6.670;2023-03-12T09:09:28;5.87;;;4.70;;
64595;SDS011;51003;51.628;6.670;2023-03-12T09:11:55;10.97;;;6.97;;
64595;SDS011;51003;51.628;6.670;2023-03-12T09:14:20;6.20;;;5.30;;
64595;SDS011;51003;51.628;6.670;2023-03-12T09:16:45;5.37;;;4.83;;
64595;SDS011;51003;51.628;6.670;2023-03-12T09:19:11;6.97;;;5.67;;
64595;SDS011;51003;51.628;6.670;2023-03-12T09:21:36;11.93;;;6.00;;
64595;SDS011;51003;51.628;6.670;2023-03-12T09:24:04;16.00;;;7.50;;
64595;SDS011;51003;51.628;6.670;2023-03-12T09:26:30;7.33;;;6.07;;
64595;SDS011;51003;51.628;6.670;2023-03-12T09:28:55;8.90;;;6.10;;
64595;SDS011;51003;51.628;6.670;2023-03-12T09:31:21;9.87;;;6.43;;
64595;SDS011;51003;51.628;6.670;2023-03-12T09:33:47;9.33;;;7.10;;
64595;SDS011;51003;51.628;6.670;2023-03-12T09:36:13;10.40;;;5.60;;
64595;SDS011;51003;51.628;6.670;2023-03-12T09:38:38;7.27;;;5.70;;
64595;SDS011;51003;51.628;6.670;2023-03-12T09:41:04;11.33;;;5.63;;
64595;SDS011;51003;51.628;6.670;2023-03-12T09:43:37;8.80;;;6.00;;
64595;SDS011;51003;51.628;6.670;2023-03-12T09:46:08;6.80;;;5.60;;
64595;SDS011;51003;51.628;6.670;2023-03-12T09:48:36;7.50;;;5.60;;
64595;SDS011;51003;51.628;6.670;2023-03-12T09:51:07;10.47;;;7.23;;
64595;SDS011;51003;51.628;6.670;2023-03-12T09:53:58;11.30;;;7.37;;
64595;SDS011;51003;51.628;6.670;2023-03-12T09:56:25;7.10;;;5.70;;
64595;SDS011;51003;51.628;6.670;2023-03-12T09:58:51;7.40;;;5.70;;
64595;SDS011;51003;51.628;6.670;2023-03-12T10:01:25;11.20;;;5.57;;
64595;SDS011;51003;51.628;6.670;2023-03-12T10:04:25;9.57;;;5.33;;
64595;SDS011;51003;51.628;6.670;2023-03-12T10:27:05;11.50;;;5.87;;
64595;SDS011;51003;51.628;6.670;2023-03-12T10:36:41;8.83;;;6.00;;
64595;SDS011;51003;51.628;6.670;2023-03-12T10:39:12;7.30;;;5.50;;
64595;SDS011;51003;51.628;6.670;2023-03-12T10:41:40;13.10;;;6.63;;
64595;SDS011;51003;51.628;6.670;2023-03-12T10:44:06;8.87;;;5.80;;
64595;SDS011;51003;51.628;6.670;2023-03-12T10:55:26;16.30;;;8.40;;
64595;SDS011;51003;51.628;6.670;2023-03-12T10:57:54;14.60;;;7.80;;
64595;SDS011;51003;51.628;6.670;2023-03-12T11:00:24;13.83;;;8.07;;
64595;SDS011;51003;51.628;6.670;2023-03-12T11:03:04;16.23;;;9.07;;
64595;SDS011;51003;51.628;6.670;2023-03-12T11:08:33;15.20;;;9.07;;
64595;SDS011;51003;51.628;6.670;2023-03-12T11:11:00;15.10;;;8.50;;
64595;SDS011;51003;51.628;6.670;2023-03-12T11:13:32;12.77;;;8.80;;
64595;SDS011;51003;51.628;6.670;2023-03-12T11:16:02;16.17;;;9.47;;
64595;SDS011;51003;51.628;6.670;2023-03-12T11:19:02;13.47;;;8.57;;
64595;SDS011;51003;51.628;6.670;2023-03-12T11:21:28;20.43;;;10.10;;
64595;SDS011;51003;51.628;6.670;2023-03-12T11:26:21;25.63;;;13.40;;
64595;SDS011;51003;51.628;6.670;2023-03-12T11:28:51;18.70;;;10.97;;
64595;SDS011;51003;51.628;6.670;2023-03-12T11:33:53;32.13;;;16.70;;
64595;SDS011;51003;51.628;6.670;2023-03-12T11:39:17;16.40;;;11.40;;
64595;SDS011;51003;51.628;6.670;2023-03-12T11:41:49;26.20;;;12.87;;
64595;SDS011;51003;51.628;6.670;2023-03-12T11:47:43;15.77;;;9.80;;
64595;SDS011;51003;51.628;6.670;2023-03-12T11:52:44;11.40;;;8.77;;
64595;SDS011;51003;51.628;6.670;2023-03-12T11:55:21;16.87;;;9.30;;
64595;SDS011;51003;51.628;6.670;2023-03-12T12:00:43;11.87;;;8.93;;
64595;SDS011;51003;51.628;6.670;2023-03-12T12:06:10;14.63;;;9.30;;
64595;SDS011;51003;51.628;6.670;2023-03-12T12:11:38;13.07;;;8.80;;
64595;SDS011;51003;51.628;6.670;2023-03-12T12:17:03;12.73;;;9.13;;
64595;SDS011;51003;51.628;6.670;2023-03-12T12:32:18;17.53;;;9.80;;
64595;SDS011;51003;51.628;6.670;2023-03-12T12:35:01;14.47;;;9.57;;
64595;SDS011;51003;51.628;6.670;2023-03-12T12:37:52;17.83;;;10.50;;
64595;SDS011;51003;51.628;6.670;2023-03-12T12:45:54;23.20;;;10.27;;
64595;SDS011;51003;51.628;6.670;2023-03-12T12:48:39;19.93;;;10.93;;
64595;SDS011;51003;51.628;6.670;2023-03-12T12:51:07;27.67;;;10.80;;
64595;SDS011;51003;51.628;6.670;2023-03-12T12:58:57;23.37;;;10.80;;
64595;SDS011;51003;51.628;6.670;2023-03-12T13:01:47;23.87;;;10.87;;
64595;SDS011;51003;51.628;6.670;2023-03-12T13:04:16;20.50;;;11.00;;
64595;SDS011;51003;51.628;6.670;2023-03-12T13:14:44;19.20;;;10.00;;
64595;SDS011;51003;51.628;6.670;2023-03-12T13:20:27;27.60;;;11.13;;
64595;SDS011;51003;51.628;6.670;2023-03-12T13:30:50;22.43;;;11.10;;
64595;SDS011;51003;51.628;6.670;2023-03-12T13:33:18;21.90;;;10.60;;
64595;SDS011;51003;51.628;6.670;2023-03-12T13:38:58;22.60;;;11.30;;
64595;SDS011;51003;51.628;6.670;2023-03-12T13:41:45;24.70;;;11.70;;
64595;SDS011;51003;51.628;6.670;2023-03-12T13:49:39;23.50;;;11.60;;
64595;SDS011;51003;51.628;6.670;2023-03-12T13:55:00;26.73;;;10.60;;
64595;SDS011;51003;51.628;6.670;2023-03-12T13:57:40;23.17;;;11.10;;
64595;SDS011;51003;51.628;6.670;2023-03-12T14:00:11;23.50;;;10.60;;
64595;SDS011;51003;51.628;6.670;2023-03-12T14:02:51;30.67;;;11.47;;
64595;SDS011;51003;51.628;6.670;2023-03-12T14:05:19;28.60;;;11.50;;
64595;SDS011;51003;51.628;6.670;2023-03-12T14:10:28;24.40;;;11.57;;
64595;SDS011;51003;51.628;6.670;2023-03-12T14:18:21;45.07;;;14.40;;
64595;SDS011;51003;51.628;6.670;2023-03-12T14:21:07;31.67;;;11.03;;
64595;SDS011;51003;51.628;6.670;2023-03-12T14:23:38;30.97;;;10.67;;
64595;SDS011;51003;51.628;6.670;2023-03-12T14:26:05;23.00;;;10.23;;
64595;SDS011;51003;51.628;6.670;2023-03-12T14:31:06;19.50;;;8.33;;
64595;SDS011;51003;51.628;6.670;2023-03-12T14:33:48;29.53;;;9.17;;
64595;SDS011;51003;51.628;6.670;2023-03-12T14:36:14;19.87;;;7.00;;
64595;SDS011;51003;51.628;6.670;2023-03-12T14:38:43;17.73;;;6.13;;
64595;SDS011;51003;51.628;6.670;2023-03-12T14:41:30;19.23;;;6.80;;
64595;SDS011;51003;51.628;6.670;2023-03-12T14:44:05;17.37;;;5.43;;
64595;SDS011;51003;51.628;6.670;2023-03-12T14:49:21;18.90;;;5.20;;
64595;SDS011;51003;51.628;6.670;2023-03-12T14:51:47;20.73;;;5.57;;
64595;SDS011;51003;51.628;6.670;2023-03-12T14:54:20;14.40;;;5.30;;
64595;SDS011;51003;51.628;6.670;2023-03-12T14:56:49;18.70;;;5.30;;
64595;SDS011;51003;51.628;6.670;2023-03-12T14:59:28;15.73;;;5.10;;
64595;SDS011;51003;51.628;6.670;2023-03-12T15:02:17;17.17;;;5.53;;
64595;SDS011;51003;51.628;6.670;2023-03-12T15:04:42;15.97;;;5.50;;
64595;SDS011;51003;51.628;6.670;2023-03-12T15:07:08;20.17;;;5.20;;
64595;SDS011;51003;51.628;6.670;2023-03-12T15:09:37;18.93;;;4.73;;
64595;SDS011;51003;51.628;6.670;2023-03-12T15:12:06;23.73;;;4.63;;
64595;SDS011;51003;51.628;6.670;2023-03-12T15:14:41;19.97;;;5.70;;
64595;SDS011;51003;51.628;6.670;2023-03-12T15:17:09;19.57;;;4.70;;
64595;SDS011;51003;51.628;6.670;2023-03-12T15:19:40;19.77;;;5.40;;
64595;SDS011;51003;51.628;6.670;2023-03-12T15:22:16;15.23;;;5.03;;
64595;SDS011;51003;51.628;6.670;2023-03-12T15:24:43;22.33;;;4.63;;
64595;SDS011;51003;51.628;6.670;2023-03-12T15:29:43;30.67;;;5.27;;
64595;SDS011;51003;51.628;6.670;2023-03-12T15:32:12;17.70;;;4.93;;
64595;SDS011;51003;51.628;6.670;2023-03-12T15:34:38;18.57;;;5.50;;
64595;SDS011;51003;51.628;6.670;2023-03-12T15:37:21;22.50;;;4.87;;
64595;SDS011;51003;51.628;6.670;2023-03-12T15:40:03;15.50;;;4.33;;
64595;SDS011;51003;51.628;6.670;2023-03-12T15:42:35;15.87;;;4.63;;
64595;SDS011;51003;51.628;6.670;2023-03-12T15:45:04;17.87;;;4.13;;
64595;SDS011;51003;51.628;6.670;2023-03-12T15:47:33;18.30;;;4.30;;
64595;SDS011;51003;51.628;6.670;2023-03-12T15:50:39;19.43;;;4.80;;
64595;SDS011;51003;51.628;6.670;2023-03-12T15:53:22;18.00;;;4.70;;
64595;SDS011;51003;51.628;6.670;2023-03-12T15:58:37;26.37;;;5.43;;
64595;SDS011;51003;51.628;6.670;2023-03-12T16:01:13;27.40;;;5.37;;
64595;SDS011;51003;51.628;6.670;2023-03-12T16:03:45;26.73;;;5.27;;
64595;SDS011;51003;51.628;6.670;2023-03-12T16:06:14;18.90;;;5.10;;
64595;SDS011;51003;51.628;6.670;2023-03-12T16:08:59;19.30;;;4.60;;
64595;SDS011;51003;51.628;6.670;2023-03-12T16:11:28;20.17;;;4.83;;
64595;SDS011;51003;51.628;6.670;2023-03-12T16:14:17;26.23;;;5.90;;
64595;SDS011;51003;51.628;6.670;2023-03-12T16:16:50;18.10;;;5.00;;
64595;SDS011;51003;51.628;6.670;2023-03-12T16:19:17;15.53;;;4.70;;
64595;SDS011;51003;51.628;6.670;2023-03-12T16:21:44;21.53;;;3.90;;
64595;SDS011;51003;51.628;6.670;2023-03-12T16:24:10;23.17;;;5.00;;
64595;SDS011;51003;51.628;6.670;2023-03-12T16:26:36;27.70;;;4.63;;
64595;SDS011;51003;51.628;6.670;2023-03-12T16:29:05;12.80;;;4.10;;
64595;SDS011;51003;51.628;6.670;2023-03-12T16:31:31;27.43;;;6.10;;
64595;SDS011;51003;51.628;6.670;2023-03-12T16:33:56;20.90;;;4.10;;
64595;SDS011;51003;51.628;6.670;2023-03-12T16:36:22;19.33;;;4.37;;
64595;SDS011;51003;51.628;6.670;2023-03-12T16:38:47;21.43;;;4.87;;
64595;SDS011;51003;51.628;6.670;2023-03-12T16:41:13;19.03;;;4.40;;
64595;SDS011;51003;51.628;6.670;2023-03-12T16:43:41;17.57;;;4.47;;
64595;SDS011;51003;51.628;6.670;2023-03-12T16:46:08;23.00;;;6.10;;
64595;SDS011;51003;51.628;6.670;2023-03-12T16:48:35;19.43;;;4.90;;
64595;SDS011;51003;51.628;6.670;2023-03-12T16:51:01;21.70;;;4.83;;
64595;SDS011;51003;51.628;6.670;2023-03-12T16:53:27;18.97;;;4.83;;
64595;SDS011;51003;51.628;6.670;2023-03-12T16:55:56;23.97;;;4.73;;
64595;SDS011;51003;51.628;6.670;2023-03-12T16:58:23;21.67;;;5.47;;
64595;SDS011;51003;51.628;6.670;2023-03-12T17:00:49;19.00;;;5.00;;
64595;SDS011;51003;51.628;6.670;2023-03-12T17:03:17;19.83;;;4.90;;
64595;SDS011;51003;51.628;6.670;2023-03-12T17:05:51;19.60;;;4.10;;
64595;SDS011;51003;51.628;6.670;2023-03-12T17:08:17;20.73;;;4.40;;
64595;SDS011;51003;51.628;6.670;2023-03-12T17:10:43;22.30;;;6.40;;
64595;SDS011;51003;51.628;6.670;2023-03-12T17:13:14;16.80;;;3.90;;
64595;SDS011;51003;51.628;6.670;2023-03-12T17:15:42;21.60;;;4.90;;
64595;SDS011;51003;51.628;6.670;2023-03-12T17:18:09;17.30;;;3.90;;
64595;SDS011;51003;51.628;6.670;2023-03-12T17:20:35;16.40;;;3.67;;
64595;SDS011;51003;51.628;6.670;2023-03-12T17:23:01;26.07;;;5.23;;
64595;SDS011;51003;51.628;6.670;2023-03-12T17:25:28;15.73;;;3.70;;
64595;SDS011;51003;51.628;6.670;2023-03-12T17:27:55;27.73;;;4.30;;
64595;SDS011;51003;51.628;6.670;2023-03-12T17:30:21;16.00;;;4.10;;
64595;SDS011;51003;51.628;6.670;2023-03-12T17:32:47;19.80;;;4.17;;
64595;SDS011;51003;51.628;6.670;2023-03-12T17:35:13;21.10;;;3.90;;
64595;SDS011;51003;51.628;6.670;2023-03-12T17:37:39;20.73;;;4.00;;
64595;SDS011;51003;51.628;6.670;2023-03-12T17:40:04;19.47;;;4.03;;
64595;SDS011;51003;51.628;6.670;2023-03-12T17:42:34;24.30;;;4.33;;
64595;SDS011;51003;51.628;6.670;2023-03-12T17:45:00;20.83;;;4.03;;
64595;SDS011;51003;51.628;6.670;2023-03-12T17:47:26;23.90;;;3.97;;
64595;SDS011;51003;51.628;6.670;2023-03-12T17:49:52;24.20;;;5.20;;
64595;SDS011;51003;51.628;6.670;2023-03-12T17:52:17;18.07;;;4.33;;
64595;SDS011;51003;51.628;6.670;2023-03-12T17:54:43;18.73;;;4.20;;
64595;SDS011;51003;51.628;6.670;2023-03-12T17:57:09;20.40;;;5.10;;
64595;SDS011;51003;51.628;6.670;2023-03-12T17:59:35;20.93;;;4.00;;
64595;SDS011;51003;51.628;6.670;2023-03-12T18:02:00;22.50;;;4.47;;
64595;SDS011;51003;51.628;6.670;2023-03-12T18:04:25;30.83;;;7.07;;
64595;SDS011;51003;51.628;6.670;2023-03-12T18:06:51;19.13;;;4.70;;
64595;SDS011;51003;51.628;6.670;2023-03-12T18:09:17;16.10;;;4.40;;
64595;SDS011;51003;51.628;6.670;2023-03-12T18:11:43;40.30;;;9.30;;
64595;SDS011;51003;51.628;6.670;2023-03-12T18:14:08;29.27;;;6.47;;
64595;SDS011;51003;51.628;6.670;2023-03-12T18:16:34;40.37;;;8.90;;
64595;SDS011;51003;51.628;6.670;2023-03-12T18:19:00;15.10;;;3.87;;
64595;SDS011;51003;51.628;6.670;2023-03-12T18:21:29;21.07;;;5.47;;
64595;SDS011;51003;51.628;6.670;2023-03-12T18:23:54;18.87;;;4.10;;
64595;SDS011;51003;51.628;6.670;2023-03-12T18:26:20;26.30;;;6.73;;
64595;SDS011;51003;51.628;6.670;2023-03-12T18:28:45;26.83;;;4.53;;
64595;SDS011;51003;51.628;6.670;2023-03-12T18:31:14;22.50;;;4.93;;
64595;SDS011;51003;51.628;6.670;2023-03-12T18:33:40;25.33;;;5.10;;
64595;SDS011;51003;51.628;6.670;2023-03-12T18:36:06;16.40;;;5.17;;
64595;SDS011;51003;51.628;6.670;2023-03-12T18:38:32;22.43;;;4.40;;
64595;SDS011;51003;51.628;6.670;2023-03-12T18:41:03;20.23;;;4.70;;
64595;SDS011;51003;51.628;6.670;2023-03-12T18:43:32;21.97;;;4.40;;
64595;SDS011;51003;51.628;6.670;2023-03-12T18:45:59;15.03;;;3.73;;
64595;SDS011;51003;51.628;6.670;2023-03-12T18:48:24;23.73;;;5.47;;
64595;SDS011;51003;51.628;6.670;2023-03-12T18:50:50;23.90;;;5.17;;
64595;SDS011;51003;51.628;6.670;2023-03-12T18:53:16;18.07;;;3.73;;
64595;SDS011;51003;51.628;6.670;2023-03-12T18:55:49;18.47;;;4.13;;
64595;SDS011;51003;51.628;6.670;2023-03-12T18:58:18;18.37;;;4.63;;
64595;SDS011;51003;51.628;6.670;2023-03-12T19:00:43;21.60;;;4.80;;
64595;SDS011;51003;51.628;6.670;2023-03-12T19:03:09;24.67;;;4.43;;
64595;SDS011;51003;51.628;6.670;2023-03-12T19:05:35;27.23;;;5.40;;
64595;SDS011;51003;51.628;6.670;2023-03-12T19:08:01;22.87;;;5.13;;
64595;SDS011;51003;51.628;6.670;2023-03-12T19:10:27;21.73;;;4.77;;
64595;SDS011;51003;51.628;6.670;2023-03-12T19:13:04;22.63;;;4.53;;
64595;SDS011;51003;51.628;6.670;2023-03-12T19:15:30;15.03;;;5.07;;
64595;SDS011;51003;51.628;6.670;2023-03-12T19:17:56;15.90;;;4.70;;
64595;SDS011;51003;51.628;6.670;2023-03-12T19:20:22;27.90;;;6.10;;
64595;SDS011;51003;51.628;6.670;2023-03-12T19:22:48;25.83;;;6.37;;
64595;SDS011;51003;51.628;6.670;2023-03-12T19:25:14;19.43;;;4.30;;
64595;SDS011;51003;51.628;6.670;2023-03-12T19:27:40;20.27;;;6.00;;
64595;SDS011;51003;51.628;6.670;2023-03-12T19:30:06;34.97;;;7.07;;